Time;durP1;ratioP1;P1;durP2;ratioP2;P2;SDS_P1;SDS_P2;PMS_P1;PMS_P2;Temp;Humidity;BMP_temperature;BMP_pressure;BME280_temperature;BME280_humidity;BME280_pressure;Samples;Min_cycle;Max_cycle;Signal;HPM_P1;HPM_P2
2021/12/10 00:00:09;;;;;;;22.27;13.00;;;17.60;42.40;;;;;;5094871;28;20202;-63
2021/12/10 00:02:38;;;;;;;21.23;12.98;;;17.50;42.50;;;;;;5095113;28;20198;-62
2021/12/10 00:05:07;;;;;;;18.55;12.32;;;17.50;42.50;;;;;;5075420;28;20198;-62
2021/12/10 00:07:34;;;;;;;20.35;12.70;;;17.50;42.50;;;;;;5076597;28;20256;-62
2021/12/10 00:10:04;;;;;;;18.95;11.98;;;17.50;43.10;;;;;;5094752;28;20598;-63
2021/12/10 00:12:35;;;;;;;20.17;11.68;;;17.40;42.50;;;;;;5076603;28;20194;-62
2021/12/10 00:15:03;;;;;;;19.92;12.15;;;17.40;42.50;;;;;;5094741;28;20537;-62
2021/12/10 00:17:30;;;;;;;17.95;11.32;;;17.40;42.60;;;;;;5094667;28;20198;-62
2021/12/10 00:19:58;;;;;;;19.45;11.55;;;17.30;43.00;;;;;;5076500;28;20271;-62
2021/12/10 00:22:33;;;;;;;18.90;10.88;;;17.30;42.60;;;;;;5076356;28;20201;-62
2021/12/10 00:25:00;;;;;;;18.85;11.82;;;17.30;42.60;;;;;;5076406;28;20190;-62
2021/12/10 00:27:30;;;;;;;20.55;11.82;;;17.30;42.70;;;;;;5094605;28;20224;-62
2021/12/10 00:30:05;;;;;;;16.77;10.52;;;17.30;42.70;;;;;;5075369;28;20288;-62
2021/12/10 00:32:35;;;;;;;15.68;10.95;;;17.20;43.20;;;;;;5075286;28;20221;-62
2021/12/10 00:35:04;;;;;;;16.50;11.20;;;17.20;42.60;;;;;;5093735;28;20205;-62
2021/12/10 00:37:31;;;;;;;16.38;10.43;;;17.10;42.80;;;;;;5093299;28;20783;-62
2021/12/10 00:40:00;;;;;;;16.73;10.40;;;17.10;42.80;;;;;;5093378;28;20281;-62
2021/12/10 00:42:28;;;;;;;16.70;10.90;;;17.10;43.00;;;;;;5093622;28;20273;-62
2021/12/10 00:44:55;;;;;;;15.43;10.13;;;17.00;42.90;;;;;;5093460;28;20198;-62
2021/12/10 00:47:24;;;;;;;15.43;10.38;;;17.00;43.00;;;;;;5093012;28;20217;-62
2021/12/10 00:49:51;;;;;;;15.82;10.32;;;17.00;42.90;;;;;;5093103;28;20665;-62
2021/12/10 00:52:19;;;;;;;15.43;10.05;;;16.90;43.20;;;;;;5075274;28;20585;-62
2021/12/10 00:54:46;;;;;;;14.60;9.90;;;16.90;43.10;;;;;;5093549;28;20198;-62
2021/12/10 00:57:13;;;;;;;15.57;9.77;;;16.90;43.10;;;;;;5074945;28;20309;-62
2021/12/10 00:59:42;;;;;;;14.45;9.07;;;16.80;43.10;;;;;;5093393;28;20190;-63
2021/12/10 01:02:11;;;;;;;15.40;9.40;;;16.80;43.20;;;;;;5093419;28;20267;-62
2021/12/10 01:04:42;;;;;;;14.38;9.85;;;16.80;43.20;;;;;;5092982;28;20186;-62
2021/12/10 01:07:10;;;;;;;13.88;9.68;;;16.80;43.20;;;;;;5093127;28;20205;-62
2021/12/10 01:09:39;;;;;;;15.25;9.52;;;16.80;43.20;;;;;;5092776;28;20205;-62
2021/12/10 01:12:08;;;;;;;13.60;9.05;;;16.70;43.20;;;;;;5074817;28;20207;-62
2021/12/10 01:14:58;;;;;;;14.02;8.32;;;16.70;43.20;;;;;;5092897;28;20190;-62
2021/12/10 01:26:05;;;;;;;11.73;8.18;;;16.60;43.10;;;;;;5044921;28;20661;-62
2021/12/10 01:28:33;;;;;;;10.73;8.13;;;16.50;43.20;;;;;;5054103;28;1098489;-62
2021/12/10 01:31:00;;;;;;;13.95;8.60;;;16.50;43.20;;;;;;5093277;28;20209;-62
2021/12/10 01:33:27;;;;;;;12.88;8.52;;;16.50;43.20;;;;;;5075117;28;20193;-62
2021/12/10 01:35:57;;;;;;;10.88;7.88;;;16.50;43.40;;;;;;5093191;28;20192;-62
2021/12/10 01:38:24;;;;;;;11.45;8.20;;;16.50;43.40;;;;;;5075148;28;20716;-62
2021/12/10 01:40:55;;;;;;;10.98;7.70;;;16.40;43.40;;;;;;5093159;28;20185;-62
2021/12/10 01:43:23;;;;;;;10.68;7.32;;;16.40;43.40;;;;;;5093204;28;20232;-62
2021/12/10 01:45:52;;;;;;;11.02;7.43;;;16.40;43.30;;;;;;5093339;28;20201;-62
2021/12/10 01:48:23;;;;;;;10.75;7.90;;;16.40;43.30;;;;;;5092900;28;20214;-62
2021/12/10 01:50:50;;;;;;;12.93;8.30;;;16.40;43.50;;;;;;5074991;28;20243;-62
2021/12/10 01:53:20;;;;;;;11.55;7.70;;;16.30;43.40;;;;;;5093077;28;20520;-62
2021/12/10 01:55:48;;;;;;;11.25;7.50;;;16.30;43.40;;;;;;5075162;28;20190;-62
2021/12/10 01:58:20;;;;;;;10.55;7.05;;;16.30;43.40;;;;;;5093223;28;20579;-62
2021/12/10 02:00:50;;;;;;;11.05;7.28;;;16.20;43.50;;;;;;5093541;28;20186;-62
2021/12/10 02:03:17;;;;;;;11.00;7.75;;;16.20;43.70;;;;;;5075085;28;20226;-62
2021/12/10 02:05:44;;;;;;;9.63;6.85;;;16.20;43.60;;;;;;5075056;28;20293;-62
2021/12/10 02:08:11;;;;;;;10.52;7.22;;;16.20;43.70;;;;;;5093663;28;20264;-62
2021/12/10 02:10:40;;;;;;;11.07;7.10;;;16.20;43.70;;;;;;5093601;28;20657;-62
2021/12/10 02:13:07;;;;;;;10.13;7.38;;;16.10;43.70;;;;;;5093477;28;20269;-62
2021/12/10 02:15:34;;;;;;;10.30;6.82;;;16.10;44.50;;;;;;5093282;28;20576;-62
2021/12/10 02:18:02;;;;;;;9.32;6.63;;;16.10;43.80;;;;;;5074739;28;20312;-62
2021/12/10 02:20:32;;;;;;;10.07;7.45;;;16.10;43.90;;;;;;5074517;28;20653;-62
2021/12/10 02:23:00;;;;;;;10.50;7.15;;;16.00;43.70;;;;;;5074628;28;20209;-63
2021/12/10 02:25:29;;;;;;;9.30;6.90;;;16.00;43.90;;;;;;5092617;28;20221;-62
2021/12/10 02:27:56;;;;;;;11.05;6.97;;;16.00;43.90;;;;;;5074773;28;20334;-62
2021/12/10 02:30:24;;;;;;;8.98;6.47;;;16.00;43.90;;;;;;5096698;28;20194;-62
2021/12/10 02:32:52;;;;;;;10.68;6.30;;;16.00;43.80;;;;;;5078606;28;20665;-62
2021/12/10 02:35:19;;;;;;;9.10;6.40;;;16.00;43.80;;;;;;5078431;28;20193;-62
2021/12/10 02:37:47;;;;;;;8.93;6.40;;;15.90;43.80;;;;;;5078441;28;20780;-62
2021/12/10 02:40:17;;;;;;;10.63;6.63;;;15.90;43.80;;;;;;5078317;28;20222;-62
2021/12/10 02:42:44;;;;;;;9.38;6.57;;;15.90;43.90;;;;;;5096923;28;20260;-62
2021/12/10 02:45:12;;;;;;;8.75;6.32;;;15.90;43.90;;;;;;5078543;28;20216;-62
2021/12/10 02:47:39;;;;;;;10.07;6.50;;;15.90;44.00;;;;;;5097250;28;20221;-62
2021/12/10 02:50:08;;;;;;;8.57;6.03;;;15.90;44.10;;;;;;5078195;28;20214;-62
2021/12/10 02:52:35;;;;;;;8.18;5.95;;;15.80;44.00;;;;;;5096343;28;20661;-62
2021/12/10 02:55:02;;;;;;;10.00;6.45;;;15.80;43.90;;;;;;5078126;28;20198;-62
2021/12/10 02:57:31;;;;;;;7.55;5.72;;;15.80;44.10;;;;;;5096225;28;20214;-63
2021/12/10 02:59:58;;;;;;;7.43;5.78;;;15.70;44.60;;;;;;5077872;28;20650;-62
2021/12/10 03:02:27;;;;;;;8.85;5.57;;;15.80;44.20;;;;;;5096191;28;20606;-62
2021/12/10 03:04:53;;;;;;;9.75;5.97;;;15.80;44.10;;;;;;5096370;28;20201;-62
2021/12/10 03:07:22;;;;;;;7.43;5.45;;;15.80;44.80;;;;;;5077817;28;20238;-62
2021/12/10 03:09:50;;;;;;;8.38;5.38;;;15.70;44.00;;;;;;5077644;28;20229;-62
2021/12/10 03:12:18;;;;;;;7.38;5.22;;;15.70;44.20;;;;;;5095898;28;20269;-62
2021/12/10 03:14:49;;;;;;;8.80;5.72;;;15.70;44.20;;;;;;5095728;28;20653;-62
2021/12/10 03:17:18;;;;;;;6.75;5.05;;;15.70;44.10;;;;;;5077819;28;20685;-63
2021/12/10 03:19:45;;;;;;;7.18;5.15;;;15.70;44.20;;;;;;5077518;28;20291;-62
2021/12/10 03:22:12;;;;;;;7.93;5.50;;;15.60;44.10;;;;;;5095612;28;20202;-62
2021/12/10 03:24:39;;;;;;;6.30;5.03;;;15.60;44.20;;;;;;5077399;28;20193;-62
2021/12/10 03:27:08;;;;;;;8.70;5.40;;;15.60;44.10;;;;;;5095452;28;20232;-62
2021/12/10 03:29:36;;;;;;;8.68;5.38;;;15.60;44.20;;;;;;5077087;28;20577;-62
2021/12/10 03:32:06;;;;;;;6.82;5.07;;;15.60;44.10;;;;;;5095482;28;20263;-62
2021/12/10 03:34:33;;;;;;;8.30;5.65;;;15.60;44.20;;;;;;5095708;28;20186;-62
2021/12/10 03:37:01;;;;;;;7.05;5.35;;;15.60;44.20;;;;;;5095440;28;20210;-62
2021/12/10 03:39:28;;;;;;;7.65;5.30;;;15.60;44.20;;;;;;5095087;28;20186;-62
2021/12/10 03:41:56;;;;;;;6.22;4.93;;;15.60;44.10;;;;;;5077434;28;20601;-62
2021/12/10 03:44:23;;;;;;;8.15;5.00;;;15.50;44.00;;;;;;5095460;28;20186;-62
2021/12/10 03:46:50;;;;;;;6.55;5.25;;;15.50;44.20;;;;;;5076913;28;20312;-62
2021/12/10 03:49:19;;;;;;;7.00;5.00;;;15.50;44.20;;;;;;5077007;28;20221;-62
2021/12/10 03:51:46;;;;;;;6.07;4.57;;;15.50;44.20;;;;;;5077230;28;20278;-62
2021/12/10 03:54:16;;;;;;;7.07;4.97;;;15.50;44.20;;;;;;5077036;28;20281;-61
2021/12/10 03:56:43;;;;;;;8.05;5.20;;;15.50;44.30;;;;;;5095464;28;20194;-62
2021/12/10 03:59:12;;;;;;;6.03;4.57;;;15.50;44.20;;;;;;5095293;28;20210;-62
2021/12/10 04:01:41;;;;;;;5.72;4.60;;;15.50;44.20;;;;;;5076874;28;20255;-62
2021/12/10 04:04:10;;;;;;;7.18;4.63;;;15.50;44.20;;;;;;5076637;28;20200;-62
2021/12/10 04:06:39;;;;;;;6.28;4.53;;;15.50;44.40;;;;;;5094772;28;20194;-62
2021/12/10 04:09:06;;;;;;;6.57;4.68;;;15.40;44.40;;;;;;5094774;28;20226;-62
2021/12/10 04:11:34;;;;;;;6.15;4.28;;;15.40;44.30;;;;;;5094900;28;20224;-62
2021/12/10 04:14:01;;;;;;;6.93;4.68;;;15.50;44.30;;;;;;5094797;28;20236;-62
2021/12/10 04:16:29;;;;;;;6.28;4.63;;;15.40;44.00;;;;;;5076363;28;20197;-62
2021/12/10 04:18:57;;;;;;;7.05;4.30;;;15.40;43.90;;;;;;5076548;28;20689;-62
2021/12/10 04:21:24;;;;;;;5.32;4.28;;;15.40;43.70;;;;;;5094543;28;20217;-62
2021/12/10 04:23:52;;;;;;;5.65;4.25;;;15.50;44.00;;;;;;5094467;28;20705;-62
2021/12/10 04:26:21;;;;;;;5.95;4.30;;;15.50;44.10;;;;;;5076228;28;20660;-62
2021/12/10 04:28:48;;;;;;;5.10;4.28;;;15.50;43.80;;;;;;5094251;28;20635;-62
2021/12/10 04:31:15;;;;;;;5.13;4.00;;;15.50;43.80;;;;;;5094293;28;20289;-62
2021/12/10 04:33:42;;;;;;;6.22;4.35;;;15.50;43.70;;;;;;5094545;28;20209;-62
2021/12/10 04:36:10;;;;;;;5.00;4.00;;;15.50;43.80;;;;;;5094199;28;20190;-61
2021/12/10 04:38:37;;;;;;;5.32;4.10;;;15.60;43.80;;;;;;5076016;28;20728;-62
2021/12/10 04:41:08;;;;;;;4.68;3.88;;;15.60;43.70;;;;;;5076009;28;20229;-62
2021/12/10 04:43:36;;;;;;;4.97;3.70;;;15.60;43.80;;;;;;5076000;28;20190;-62
2021/12/10 04:46:03;;;;;;;5.32;4.07;;;15.60;43.50;;;;;;5075963;28;20197;-62
2021/12/10 04:48:31;;;;;;;6.03;3.70;;;15.60;43.60;;;;;;5093882;28;20283;-62
2021/12/10 04:50:58;;;;;;;5.90;3.70;;;15.60;43.50;;;;;;5093329;28;20669;-62
2021/12/10 04:53:24;;;;;;;4.93;3.88;;;15.60;43.50;;;;;;5075908;28;20720;-62
2021/12/10 04:55:51;;;;;;;6.32;4.40;;;15.60;44.10;;;;;;5094082;28;20426;-62
2021/12/10 04:58:20;;;;;;;4.50;3.88;;;15.60;43.50;;;;;;5094151;28;20217;-62
2021/12/10 05:00:49;;;;;;;5.22;3.72;;;15.60;43.40;;;;;;5075884;28;20195;-62
2021/12/10 05:03:16;;;;;;;7.28;4.00;;;15.70;43.50;;;;;;5094375;28;20201;-61
2021/12/10 05:05:43;;;;;;;6.30;3.65;;;15.60;43.60;;;;;;5094442;28;20194;-62
2021/12/10 05:08:10;;;;;;;5.70;3.97;;;15.60;43.70;;;;;;5075555;28;20279;-62
2021/12/10 05:10:38;;;;;;;5.97;4.03;;;15.60;43.70;;;;;;5093938;28;20720;-62
2021/12/10 05:13:05;;;;;;;6.07;4.18;;;15.60;43.60;;;;;;5093732;28;20726;-62
2021/12/10 05:15:35;;;;;;;4.75;3.67;;;15.60;43.50;;;;;;5093768;28;20736;-62
2021/12/10 05:18:02;;;;;;;4.80;4.07;;;15.60;43.40;;;;;;5075540;28;20275;-62
2021/12/10 05:20:31;;;;;;;4.95;3.97;;;15.60;43.60;;;;;;5075482;28;20194;-62
2021/12/10 05:22:58;;;;;;;4.78;3.75;;;15.60;43.10;;;;;;5093630;28;20269;-62
2021/12/10 05:25:26;;;;;;;4.43;3.72;;;15.60;43.50;;;;;;5075474;28;20194;-62
2021/12/10 05:27:53;;;;;;;4.43;3.78;;;15.70;43.30;;;;;;5075546;28;20305;-62
2021/12/10 05:30:22;;;;;;;5.20;3.92;;;15.70;43.30;;;;;;5081018;22;20317;-66
2021/12/10 05:32:51;;;;;;;4.32;3.63;;;15.70;43.30;;;;;;5055311;28;20247;-66
2021/12/10 05:35:17;;;;;;;4.82;3.40;;;15.70;43.30;;;;;;5055641;28;20203;-65
2021/12/10 05:37:45;;;;;;;4.25;3.67;;;15.70;43.20;;;;;;5055433;28;20214;-65
2021/12/10 05:40:13;;;;;;;4.43;3.97;;;15.80;43.40;;;;;;5071074;28;20221;-65
2021/12/10 05:42:40;;;;;;;5.13;3.70;;;15.70;43.40;;;;;;5125301;22;20648;-67
2021/12/10 05:45:08;;;;;;;5.10;3.67;;;15.80;43.00;;;;;;5033068;28;20235;-67
2021/12/10 05:47:35;;;;;;;5.88;3.50;;;15.80;43.30;;;;;;5031726;28;20282;-67
2021/12/10 05:50:04;;;;;;;5.00;3.70;;;15.90;43.40;;;;;;5109976;22;20226;-66
2021/12/10 05:52:31;;;;;;;4.10;3.38;;;15.90;43.10;;;;;;5092820;28;20198;-67
2021/12/10 05:54:58;;;;;;;4.45;3.50;;;15.90;42.90;;;;;;5074563;28;20198;-67
2021/12/10 06:02:30;;;;;;;5.45;3.50;;;16.00;43.10;;;;;;5050878;28;20207;-54
2021/12/10 06:07:53;;;;;;;3.88;3.40;;;16.00;43.50;;;;;;5089693;27;20561;-67
2021/12/10 06:10:21;;;;;;;4.53;3.55;;;16.00;43.10;;;;;;5088653;28;20225;-67
2021/12/10 06:12:48;;;;;;;4.15;3.65;;;16.10;43.10;;;;;;5088481;28;20204;-67
2021/12/10 06:15:16;;;;;;;4.32;3.92;;;16.10;43.20;;;;;;5088741;28;20279;-67
2021/12/10 06:17:43;;;;;;;3.60;2.95;;;16.10;43.50;;;;;;5088745;28;20205;-67
2021/12/10 06:20:12;;;;;;;6.82;3.58;;;16.10;43.40;;;;;;5088364;28;20542;-67
2021/12/10 06:25:15;;;;;;;4.57;3.35;;;16.10;43.00;;;;;;5024011;28;20204;-67
2021/12/10 06:27:44;;;;;;;4.70;3.15;;;16.20;43.30;;;;;;5011418;28;20193;-67
2021/12/10 06:30:12;;;;;;;3.53;3.10;;;16.20;43.20;;;;;;5025591;28;20656;-66
2021/12/10 06:32:39;;;;;;;5.30;3.30;;;16.10;43.10;;;;;;5029102;28;20199;-66
2021/12/10 06:35:06;;;;;;;4.07;3.10;;;16.10;42.90;;;;;;5029190;28;20296;-66
2021/12/10 06:37:33;;;;;;;5.20;3.35;;;16.10;43.20;;;;;;5028863;28;20247;-66
2021/12/10 06:40:00;;;;;;;6.10;3.90;;;16.10;43.10;;;;;;5028771;28;20315;-66
2021/12/10 06:42:29;;;;;;;4.60;3.55;;;16.10;42.80;;;;;;5028777;28;20196;-66
2021/12/10 06:44:56;;;;;;;4.72;3.30;;;16.20;42.80;;;;;;5028498;28;20653;-66
2021/12/10 06:47:23;;;;;;;3.97;3.33;;;16.10;42.70;;;;;;5028528;28;20216;-66
2021/12/10 06:49:50;;;;;;;3.72;3.33;;;16.20;42.70;;;;;;5161575;23;20222;-67
2021/12/10 06:52:17;;;;;;;3.42;3.03;;;16.20;42.50;;;;;;5068820;28;20195;-67
2021/12/10 06:54:44;;;;;;;3.70;3.28;;;16.20;42.50;;;;;;5067546;28;20191;-66
2021/12/10 06:57:11;;;;;;;4.30;3.17;;;16.20;42.50;;;;;;5067539;28;20652;-66
2021/12/10 06:59:39;;;;;;;3.88;3.38;;;16.20;42.30;;;;;;5080423;28;20210;-66
2021/12/10 07:02:06;;;;;;;3.70;3.05;;;16.20;42.30;;;;;;5087223;28;20614;-66
2021/12/10 07:04:35;;;;;;;3.42;3.13;;;16.20;42.10;;;;;;5089090;28;20190;-67
2021/12/10 07:07:03;;;;;;;3.45;3.15;;;16.20;42.10;;;;;;5087025;28;20222;-66
2021/12/10 07:09:30;;;;;;;3.67;3.28;;;16.20;42.00;;;;;;5087134;28;20249;-67
2021/12/10 07:11:57;;;;;;;3.65;3.22;;;16.20;42.00;;;;;;5087252;28;20243;-66
2021/12/10 07:14:24;;;;;;;4.32;3.40;;;16.20;41.90;;;;;;5087447;28;20194;-66
2021/12/10 07:16:53;;;;;;;4.30;3.30;;;16.20;41.80;;;;;;5087281;28;20186;-66
2021/12/10 07:19:20;;;;;;;4.70;3.35;;;16.20;41.80;;;;;;5073354;28;20748;-66
2021/12/10 07:21:47;;;;;;;4.43;3.65;;;16.20;41.90;;;;;;5073932;28;20197;-66
2021/12/10 07:24:15;;;;;;;3.40;3.10;;;16.30;41.90;;;;;;5073900;28;20222;-67
2021/12/10 07:26:43;;;;;;;6.07;3.67;;;16.30;41.80;;;;;;5073797;28;20708;-66
2021/12/10 07:29:11;;;;;;;3.80;3.38;;;16.30;41.90;;;;;;5073964;28;20733;-66
2021/12/10 07:31:38;;;;;;;4.20;3.60;;;16.30;41.60;;;;;;5075283;28;20251;-66
2021/12/10 07:34:07;;;;;;;3.63;3.00;;;16.30;41.60;;;;;;5073764;28;20248;-67
2021/12/10 07:36:34;;;;;;;3.35;2.92;;;16.30;41.50;;;;;;5073976;28;20244;-67
2021/12/10 07:39:03;;;;;;;3.55;3.10;;;16.30;41.60;;;;;;5073726;28;20219;-66
2021/12/10 07:41:30;;;;;;;4.45;3.50;;;16.30;41.50;;;;;;5074354;28;20234;-67
2021/12/10 07:43:57;;;;;;;3.95;3.55;;;16.30;41.60;;;;;;5074364;28;20198;-66
2021/12/10 07:46:27;;;;;;;4.60;3.45;;;16.30;41.50;;;;;;5074545;28;20219;-67
2021/12/10 07:48:54;;;;;;;3.97;3.35;;;16.40;41.50;;;;;;5073736;28;20221;-66
2021/12/10 07:51:25;;;;;;;5.18;3.50;;;16.40;41.50;;;;;;5074908;28;20214;-65
2021/12/10 07:53:57;;;;;;;4.00;3.25;;;16.40;41.20;;;;;;5073628;28;20286;-66
2021/12/10 07:56:24;;;;;;;3.67;3.30;;;16.50;41.70;;;;;;5073667;28;20194;-66
2021/12/10 07:58:51;;;;;;;4.07;3.55;;;16.40;41.20;;;;;;5073527;28;20717;-66
2021/12/10 08:01:20;;;;;;;3.78;3.25;;;16.50;41.20;;;;;;5073730;28;20202;-66
2021/12/10 08:03:47;;;;;;;4.03;3.08;;;16.50;41.30;;;;;;5073208;28;20195;-67
2021/12/10 08:06:15;;;;;;;4.38;3.53;;;16.50;41.20;;;;;;5073312;28;20225;-66
2021/12/10 08:08:43;;;;;;;3.55;3.13;;;16.50;41.10;;;;;;5073251;28;20215;-66
2021/12/10 08:11:11;;;;;;;3.47;3.17;;;16.60;41.20;;;;;;5073374;28;20290;-66
2021/12/10 08:13:38;;;;;;;4.10;3.22;;;16.60;41.20;;;;;;5073083;28;20194;-66
2021/12/10 08:16:06;;;;;;;3.47;3.13;;;16.60;41.10;;;;;;5073096;28;20202;-66
2021/12/10 08:18:33;;;;;;;3.78;3.08;;;16.60;41.20;;;;;;5072924;28;20194;-66
2021/12/10 08:21:00;;;;;;;4.30;3.60;;;16.60;41.70;;;;;;5073333;28;20205;-67
2021/12/10 08:23:27;;;;;;;3.95;3.30;;;16.70;41.00;;;;;;5073026;28;20229;-66
2021/12/10 08:25:56;;;;;;;4.90;3.42;;;16.70;40.80;;;;;;5072795;28;20190;-66
2021/12/10 08:28:25;;;;;;;4.35;3.60;;;16.70;40.90;;;;;;5074174;28;20186;-66
2021/12/10 08:30:52;;;;;;;4.93;3.63;;;16.70;40.90;;;;;;5072001;28;20674;-67
2021/12/10 08:33:19;;;;;;;4.43;3.67;;;16.70;40.80;;;;;;5072855;28;20651;-67
2021/12/10 08:35:48;;;;;;;3.90;3.50;;;16.80;40.80;;;;;;5072604;28;20205;-67
2021/12/10 08:38:15;;;;;;;4.38;3.70;;;16.70;40.90;;;;;;5072729;28;20210;-66
2021/12/10 08:40:44;;;;;;;4.15;3.38;;;16.80;40.80;;;;;;5072591;28;20667;-67
2021/12/10 08:43:12;;;;;;;3.70;3.40;;;16.70;41.40;;;;;;5072803;28;20738;-66
2021/12/10 08:45:40;;;;;;;4.22;3.10;;;16.80;41.00;;;;;;5072787;28;20206;-66
2021/12/10 08:48:08;;;;;;;4.03;3.28;;;16.80;40.80;;;;;;5073980;28;20644;-66
2021/12/10 08:50:35;;;;;;;3.65;3.30;;;16.80;40.90;;;;;;5072431;28;20238;-66
2021/12/10 08:53:07;;;;;;;3.67;3.38;;;16.80;40.80;;;;;;5073054;28;20278;-66
2021/12/10 08:55:35;;;;;;;4.03;3.25;;;16.80;40.80;;;;;;5072877;28;20225;-67
2021/12/10 08:58:02;;;;;;;3.35;3.05;;;16.90;40.70;;;;;;5072738;28;20297;-67
2021/12/10 09:00:31;;;;;;;4.07;3.00;;;16.90;41.40;;;;;;5072517;28;20218;-66
2021/12/10 09:02:58;;;;;;;3.65;2.90;;;16.90;40.70;;;;;;5072532;28;20214;-66
2021/12/10 09:05:25;;;;;;;3.10;2.78;;;16.90;40.70;;;;;;5072546;28;20209;-66
2021/12/10 09:07:52;;;;;;;4.32;2.90;;;16.90;40.60;;;;;;5072327;28;20275;-66
2021/12/10 09:10:21;;;;;;;3.22;2.92;;;16.90;40.60;;;;;;5072615;28;20218;-66
2021/12/10 09:12:48;;;;;;;3.30;2.97;;;17.00;40.80;;;;;;5072823;28;20226;-66
2021/12/10 09:15:19;;;;;;;3.28;2.88;;;17.00;40.50;;;;;;5073409;28;20739;-67
2021/12/10 09:17:47;;;;;;;3.65;3.03;;;17.00;41.00;;;;;;5072415;28;20190;-67
2021/12/10 09:20:17;;;;;;;2.92;2.72;;;17.00;40.50;;;;;;5072332;28;20218;-66
2021/12/10 09:22:44;;;;;;;4.63;3.00;;;16.90;40.60;;;;;;5072696;28;20293;-66
2021/12/10 09:25:11;;;;;;;3.38;3.08;;;17.00;40.70;;;;;;5074398;28;20678;-66
2021/12/10 09:27:38;;;;;;;3.15;2.88;;;17.00;40.70;;;;;;5072524;28;20219;-66
2021/12/10 09:30:07;;;;;;;3.63;3.15;;;17.00;40.70;;;;;;5072773;28;20242;-67
2021/12/10 09:32:34;;;;;;;4.70;3.45;;;16.90;40.40;;;;;;5072827;28;20190;-66
2021/12/10 09:35:05;;;;;;;4.75;3.40;;;17.00;40.20;;;;;;5073750;28;20269;-67
2021/12/10 09:37:33;;;;;;;3.80;3.30;;;17.00;40.20;;;;;;5072795;28;20198;-67
2021/12/10 09:40:00;;;;;;;3.05;2.75;;;17.00;40.20;;;;;;5072494;28;20210;-67
2021/12/10 09:42:27;;;;;;;3.30;3.00;;;17.00;40.30;;;;;;5072490;28;20195;-67
2021/12/10 09:44:55;;;;;;;4.28;2.80;;;17.00;40.20;;;;;;5074231;28;20606;-66
2021/12/10 09:47:22;;;;;;;3.22;2.92;;;17.10;40.30;;;;;;5072183;28;20276;-67
2021/12/10 09:49:52;;;;;;;3.35;3.00;;;17.10;40.40;;;;;;5071587;28;20230;-66
2021/12/10 09:52:22;;;;;;;3.05;2.80;;;17.10;40.40;;;;;;5072126;28;20277;-67
2021/12/10 09:54:49;;;;;;;3.10;2.80;;;17.10;40.40;;;;;;5073088;28;20195;-66
2021/12/10 09:57:19;;;;;;;3.03;2.80;;;17.10;40.40;;;;;;5071793;28;20282;-67
2021/12/10 09:59:47;;;;;;;3.20;2.90;;;17.10;40.20;;;;;;5071438;28;20211;-67
2021/12/10 10:02:14;;;;;;;3.20;2.85;;;17.10;40.30;;;;;;5071666;28;20221;-66
2021/12/10 10:04:46;;;;;;;3.85;2.90;;;17.10;40.00;;;;;;5071401;28;20194;-67
2021/12/10 10:07:15;;;;;;;3.53;2.92;;;17.20;40.30;;;;;;5071256;28;20257;-66
2021/12/10 10:09:46;;;;;;;2.95;2.72;;;17.20;40.00;;;;;;5071274;28;20286;-67
2021/12/10 10:12:14;;;;;;;3.20;2.83;;;17.20;40.00;;;;;;5071771;28;20557;-66
2021/12/10 10:14:41;;;;;;;3.63;3.10;;;17.20;39.80;;;;;;5071055;28;20205;-67
2021/12/10 10:17:09;;;;;;;4.32;3.40;;;17.20;39.80;;;;;;5071671;28;20195;-67
2021/12/10 10:19:36;;;;;;;3.50;3.00;;;17.20;39.60;;;;;;5070925;28;20279;-67
2021/12/10 10:22:05;;;;;;;3.35;3.05;;;17.20;39.50;;;;;;5071386;28;20203;-66
2021/12/10 10:24:32;;;;;;;5.03;3.45;;;17.30;39.70;;;;;;5071681;28;20256;-67
2021/12/10 10:27:04;;;;;;;3.10;2.80;;;17.30;39.50;;;;;;5072961;28;20306;-66
2021/12/10 10:29:33;;;;;;;3.33;3.00;;;17.30;39.50;;;;;;5071391;28;20710;-66
2021/12/10 10:32:08;;;;;;;3.80;2.97;;;17.30;39.50;;;;;;5071469;28;20195;-66
2021/12/10 10:34:36;;;;;;;4.78;3.50;;;17.30;39.30;;;;;;5071454;28;20198;-66
2021/12/10 10:37:03;;;;;;;3.60;3.10;;;17.40;39.20;;;;;;5071812;28;20518;-67
2021/12/10 10:39:34;;;;;;;3.20;2.90;;;17.40;39.40;;;;;;5071506;28;20218;-67
2021/12/10 10:42:03;;;;;;;3.10;2.80;;;17.40;39.60;;;;;;5071523;28;20213;-66
2021/12/10 10:44:30;;;;;;;3.65;3.33;;;17.40;39.40;;;;;;5070873;28;20202;-66
2021/12/10 10:46:59;;;;;;;3.92;3.40;;;17.40;39.30;;;;;;5072631;28;20210;-66
2021/12/10 10:49:34;;;;;;;3.40;2.92;;;17.40;39.20;;;;;;5070885;28;20222;-66
2021/12/10 10:52:13;;;;;;;4.30;3.42;;;17.40;39.20;;;;;;5070814;28;20222;-67
2021/12/10 10:54:41;;;;;;;3.45;2.95;;;17.40;39.20;;;;;;5074674;28;20609;-66
2021/12/10 10:57:14;;;;;;;3.17;2.85;;;17.40;39.20;;;;;;5075928;28;20271;-66
2021/12/10 10:59:41;;;;;;;3.10;2.80;;;17.40;39.40;;;;;;5074697;28;20219;-66
2021/12/10 11:02:10;;;;;;;3.35;3.05;;;17.40;39.60;;;;;;5074361;28;20667;-66
2021/12/10 11:04:40;;;;;;;3.00;2.80;;;17.50;39.70;;;;;;5074364;28;20202;-66
2021/12/10 11:07:09;;;;;;;3.55;3.08;;;17.40;39.50;;;;;;5074258;28;20211;-66
2021/12/10 11:09:42;;;;;;;3.17;2.88;;;17.50;40.20;;;;;;5074341;28;20222;-66
2021/12/10 11:12:16;;;;;;;3.28;2.97;;;17.50;39.80;;;;;;5074401;28;20201;-66
2021/12/10 11:14:45;;;;;;;3.88;3.45;;;17.50;39.80;;;;;;5074060;28;20214;-66
2021/12/10 11:17:14;;;;;;;3.05;2.80;;;17.50;39.70;;;;;;5074483;28;20225;-66
2021/12/10 11:19:43;;;;;;;3.25;2.90;;;17.50;39.90;;;;;;5074265;28;20211;-66
2021/12/10 11:22:11;;;;;;;3.05;2.75;;;17.50;39.90;;;;;;5073515;28;20202;-66
2021/12/10 11:24:43;;;;;;;3.15;2.85;;;17.50;39.90;;;;;;5075060;28;20199;-66
2021/12/10 11:27:12;;;;;;;2.50;2.30;;;17.50;39.70;;;;;;5074082;28;20301;-66
2021/12/10 11:29:45;;;;;;;2.63;2.42;;;17.50;40.00;;;;;;5074208;28;20214;-66
2021/12/10 11:32:14;;;;;;;3.50;2.67;;;17.50;40.00;;;;;;5073910;28;20612;-67
2021/12/10 11:34:43;;;;;;;2.50;2.30;;;17.50;40.00;;;;;;5075459;28;20270;-67
2021/12/10 11:37:11;;;;;;;3.08;2.60;;;17.50;40.00;;;;;;5096804;23;20590;-57
2021/12/10 11:39:45;;;;;;;2.55;2.28;;;17.50;40.00;;;;;;5095540;28;20534;-56
2021/12/10 11:42:36;;;;;;;2.50;2.30;;;17.50;39.50;;;;;;5094874;28;20192;-56
2021/12/10 11:45:17;;;;;;;2.30;2.10;;;17.50;39.30;;;;;;5093707;28;20580;-56
2021/12/10 11:47:48;;;;;;;2.72;2.10;;;17.50;38.90;;;;;;5094901;28;20295;-56
2021/12/10 11:50:19;;;;;;;2.35;2.00;;;17.50;39.10;;;;;;5095057;28;20266;-56
2021/12/10 11:52:50;;;;;;;2.58;2.35;;;17.50;39.30;;;;;;5094891;28;20202;-56
2021/12/10 11:55:17;;;;;;;2.50;2.30;;;17.60;40.40;;;;;;5094724;28;20216;-56
2021/12/10 11:57:50;;;;;;;3.55;2.30;;;17.50;39.50;;;;;;5093253;28;20237;-56
2021/12/10 12:00:20;;;;;;;2.55;2.22;;;17.50;39.40;;;;;;5094802;28;20639;-56
2021/12/10 12:02:49;;;;;;;2.30;2.10;;;17.50;39.40;;;;;;5093242;28;20285;-56
2021/12/10 12:05:17;;;;;;;2.53;2.33;;;17.50;39.30;;;;;;5093236;28;20561;-56
2021/12/10 12:07:45;;;;;;;2.20;2.00;;;17.50;39.30;;;;;;5094333;28;20253;-56
2021/12/10 12:10:19;;;;;;;2.10;1.92;;;17.60;39.40;;;;;;5094504;28;20289;-56
2021/12/10 12:12:47;;;;;;;2.92;2.25;;;17.50;39.90;;;;;;5094652;28;20178;-56
2021/12/10 12:15:21;;;;;;;2.20;2.05;;;17.60;39.30;;;;;;5094377;28;20236;-56
2021/12/10 12:17:51;;;;;;;1.95;1.80;;;17.60;39.30;;;;;;5094110;28;20210;-56
2021/12/10 12:20:33;;;;;;;2.58;1.90;;;17.60;39.30;;;;;;5094622;28;20234;-56
2021/12/10 12:25:51;;;;;;;2.40;2.10;;;17.60;39.30;;;;;;5092802;28;20190;-55
2021/12/10 12:28:20;;;;;;;2.20;1.80;;;17.60;39.40;;;;;;5092617;28;20245;-56
2021/12/10 12:30:58;;;;;;;2.20;2.00;;;17.60;39.40;;;;;;5092716;28;20688;-56
2021/12/10 12:33:26;;;;;;;2.13;2.03;;;17.60;39.30;;;;;;5094102;28;20199;-56
2021/12/10 12:35:54;;;;;;;2.22;2.13;;;17.60;39.30;;;;;;5093971;28;20186;-56
2021/12/10 12:38:23;;;;;;;2.33;2.13;;;17.60;39.30;;;;;;5092448;28;20225;-56
2021/12/10 12:41:07;;;;;;;2.50;2.30;;;17.60;39.40;;;;;;5093975;28;20269;-56
2021/12/10 12:43:35;;;;;;;2.00;1.90;;;17.60;39.40;;;;;;5092840;28;20737;-56
2021/12/10 12:46:08;;;;;;;2.15;1.95;;;17.70;39.40;;;;;;5094277;28;20269;-56
2021/12/10 12:48:37;;;;;;;2.38;1.90;;;17.60;39.30;;;;;;5097323;23;20326;-70
2021/12/10 12:51:11;;;;;;;3.15;2.22;;;17.60;39.30;;;;;;5053774;28;20191;-69
2021/12/10 12:53:38;;;;;;;2.75;1.85;;;17.60;39.30;;;;;;5052399;28;20195;-70
2021/12/10 12:56:10;;;;;;;2.28;2.08;;;17.60;39.30;;;;;;5052218;28;20278;-68
2021/12/10 12:58:41;;;;;;;1.92;1.83;;;17.60;39.30;;;;;;5032452;28;20286;-71
2021/12/10 13:01:14;;;;;;;2.03;1.88;;;17.60;39.50;;;;;;5032295;28;20198;-70
2021/12/10 13:03:44;;;;;;;2.20;2.00;;;17.60;39.40;;;;;;5032283;28;20200;-69
2021/12/10 13:06:13;;;;;;;2.30;2.03;;;17.70;39.50;;;;;;5032075;28;20262;-69
2021/12/10 13:08:43;;;;;;;2.30;2.10;;;17.70;39.60;;;;;;5032313;28;20212;-70
2021/12/10 13:11:14;;;;;;;2.10;2.00;;;17.70;39.40;;;;;;5032338;28;20242;-69